sensor_id;sensor_type;location;lat;lon;timestamp;pressure;altitude;pressure_sealevel;temperature;humidity
73341;BME280;61578;52.002;5.468;2022-09-09T00:00:11;100724.44;;;15.18;91.04
73341;BME280;61578;52.002;5.468;2022-09-09T00:01:01;100732.69;;;15.26;91.27
73341;BME280;61578;52.002;5.468;2022-09-09T00:01:59;100713.88;;;15.17;91.05
73341;BME280;61578;52.002;5.468;2022-09-09T00:02:35;100732.69;;;15.26;91.49
73341;BME280;61578;52.002;5.468;2022-09-09T00:03:27;100731.84;;;15.26;90.67
73341;BME280;61578;52.002;5.468;2022-09-09T00:04:15;100706.13;;;15.14;91.10
73341;BME280;61578;52.002;5.468;2022-09-09T00:05:18;100710.38;;;15.16;91.87
73341;BME280;61578;52.002;5.468;2022-09-09T00:06:42;100720.66;;;15.21;91.36
73341;BME280;61578;52.002;5.468;2022-09-09T00:07:49;100715.31;;;15.21;91.53
73341;BME280;61578;52.002;5.468;2022-09-09T00:08:37;100713.88;;;15.17;91.77
73341;BME280;61578;52.002;5.468;2022-09-09T00:09:31;100715.44;;;15.19;92.08
73341;BME280;61578;52.002;5.468;2022-09-09T00:10:38;100729.00;;;15.27;92.27
73341;BME280;61578;52.002;5.468;2022-09-09T00:11:18;100707.94;;;15.13;91.41
73341;BME280;61578;52.002;5.468;2022-09-09T00:12:22;100712.19;;;15.16;91.00
73341;BME280;61578;52.002;5.468;2022-09-09T00:13:22;100733.78;;;15.24;91.22
73341;BME280;61578;52.002;5.468;2022-09-09T00:14:11;100718.25;;;15.18;90.80
73341;BME280;61578;52.002;5.468;2022-09-09T00:14:55;100734.63;;;15.24;91.96
73341;BME280;61578;52.002;5.468;2022-09-09T00:15:40;100728.09;;;15.17;91.44
73341;BME280;61578;52.002;5.468;2022-09-09T00:16:27;100736.59;;;15.22;91.12
73341;BME280;61578;52.002;5.468;2022-09-09T00:17:14;100721.19;;;15.15;91.47
73341;BME280;61578;52.002;5.468;2022-09-09T00:18:15;100732.34;;;15.20;91.77
73341;BME280;61578;52.002;5.468;2022-09-09T00:19:07;100728.81;;;15.19;92.12
73341;BME280;61578;52.002;5.468;2022-09-09T00:19:50;100723.59;;;15.18;92.08
73341;BME280;61578;52.002;5.468;2022-09-09T00:21:36;100722.75;;;15.17;91.69
73341;BME280;61578;52.002;5.468;2022-09-09T00:22:23;100690.94;;;14.93;91.53
73341;BME280;61578;52.002;5.468;2022-09-09T00:23:57;100723.88;;;15.15;91.56
73341;BME280;61578;52.002;5.468;2022-09-09T00:24:39;100726.53;;;15.15;92.27
73341;BME280;61578;52.002;5.468;2022-09-09T00:25:39;100726.66;;;15.13;91.52
73341;BME280;61578;52.002;5.468;2022-09-09T00:26:39;100727.78;;;15.10;91.58
73341;BME280;61578;52.002;5.468;2022-09-09T00:27:40;100722.41;;;15.10;91.55
73341;BME280;61578;52.002;5.468;2022-09-09T00:28:26;100714.72;;;14.96;91.37
73341;BME280;61578;52.002;5.468;2022-09-09T00:30:16;100725.34;;;15.07;91.87
73341;BME280;61578;52.002;5.468;2022-09-09T00:30:53;100717.13;;;14.99;91.60
73341;BME280;61578;52.002;5.468;2022-09-09T00:31:31;100730.69;;;15.07;91.70
73341;BME280;61578;52.002;5.468;2022-09-09T00:32:16;100718.97;;;14.99;91.50
73341;BME280;61578;52.002;5.468;2022-09-09T00:32:53;100734.63;;;15.03;92.21
73341;BME280;61578;52.002;5.468;2022-09-09T00:33:30;100704.53;;;14.90;91.38
73341;BME280;61578;52.002;5.468;2022-09-09T00:34:15;100727.69;;;15.01;92.27
73341;BME280;61578;52.002;5.468;2022-09-09T00:35:17;100722.34;;;15.01;92.11
73341;BME280;61578;52.002;5.468;2022-09-09T00:35:57;100725.88;;;15.01;92.13
73341;BME280;61578;52.002;5.468;2022-09-09T00:36:32;100714.88;;;14.95;91.84
73341;BME280;61578;52.002;5.468;2022-09-09T00:37:05;100721.75;;;14.97;92.00
73341;BME280;61578;52.002;5.468;2022-09-09T00:37:39;100722.88;;;14.95;91.53
73341;BME280;61578;52.002;5.468;2022-09-09T00:38:25;100735.41;;;14.94;91.83
73341;BME280;61578;52.002;5.468;2022-09-09T00:39:03;100710.41;;;14.84;91.96
73341;BME280;61578;52.002;5.468;2022-09-09T00:39:42;100718.16;;;14.87;91.59
73341;BME280;61578;52.002;5.468;2022-09-09T00:40:45;100722.53;;;14.88;91.55
73341;BME280;61578;52.002;5.468;2022-09-09T00:42:42;100699.13;;;14.81;92.13
73341;BME280;61578;52.002;5.468;2022-09-09T00:47:56;100701.78;;;14.81;92.24
73341;BME280;61578;52.002;5.468;2022-09-09T00:48:47;100685.69;;;14.71;92.20
73341;BME280;61578;52.002;5.468;2022-09-09T00:50:43;100714.06;;;14.83;91.45
73341;BME280;61578;52.002;5.468;2022-09-09T00:52:42;100709.81;;;14.81;92.21
73341;BME280;61578;52.002;5.468;2022-09-09T00:56:16;100702.16;;;14.76;91.77
73341;BME280;61578;52.002;5.468;2022-09-09T00:57:58;100679.22;;;14.53;91.81
73341;BME280;61578;52.002;5.468;2022-09-09T00:58:29;100707.91;;;14.71;91.44
73341;BME280;61578;52.002;5.468;2022-09-09T00:59:16;100710.34;;;14.75;90.79
73341;BME280;61578;52.002;5.468;2022-09-09T01:00:29;100716.78;;;14.72;91.39
73341;BME280;61578;52.002;5.468;2022-09-09T01:01:10;100715.94;;;14.71;91.38
73341;BME280;61578;52.002;5.468;2022-09-09T01:01:43;100715.09;;;14.71;91.80
73341;BME280;61578;52.002;5.468;2022-09-09T01:02:39;100712.53;;;14.69;91.71
73341;BME280;61578;52.002;5.468;2022-09-09T01:03:49;100718.13;;;14.66;90.94
73341;BME280;61578;52.002;5.468;2022-09-09T01:04:32;100713.91;;;14.64;91.42
73341;BME280;61578;52.002;5.468;2022-09-09T01:05:24;100713.91;;;14.64;91.30
73341;BME280;61578;52.002;5.468;2022-09-09T01:06:13;100718.53;;;14.62;91.99
73341;BME280;61578;52.002;5.468;2022-09-09T01:06:55;100711.34;;;14.62;92.16
73341;BME280;61578;52.002;5.468;2022-09-09T01:07:34;100686.75;;;14.48;92.27
73341;BME280;61578;52.002;5.468;2022-09-09T01:09:57;100707.03;;;14.50;91.28
73341;BME280;61578;52.002;5.468;2022-09-09T01:10:37;100724.34;;;14.56;92.37
73341;BME280;61578;52.002;5.468;2022-09-09T01:11:21;100716.84;;;14.50;92.39
73341;BME280;61578;52.002;5.468;2022-09-09T01:12:42;100699.97;;;14.38;92.30
73341;BME280;61578;52.002;5.468;2022-09-09T01:13:24;100717.81;;;14.49;92.51
73341;BME280;61578;52.002;5.468;2022-09-09T01:15:22;100703.50;;;14.50;92.00
73341;BME280;61578;52.002;5.468;2022-09-09T01:16:01;100717.06;;;14.58;92.71
73341;BME280;61578;52.002;5.468;2022-09-09T01:16:34;100697.44;;;14.48;92.44
73341;BME280;61578;52.002;5.468;2022-09-09T01:18:10;100716.63;;;14.53;91.83
73341;BME280;61578;52.002;5.468;2022-09-09T01:18:17;100723.91;;;14.51;91.49
73341;BME280;61578;52.002;5.468;2022-09-09T01:18:54;100716.84;;;14.50;92.12
73341;BME280;61578;52.002;5.468;2022-09-09T01:20:49;100709.94;;;14.47;92.14
73341;BME280;61578;52.002;5.468;2022-09-09T01:22:26;100706.41;;;14.47;92.06
73341;BME280;61578;52.002;5.468;2022-09-09T01:25:28;100710.91;;;14.46;91.67
73341;BME280;61578;52.002;5.468;2022-09-09T01:27:02;100698.91;;;14.41;91.51
73341;BME280;61578;52.002;5.468;2022-09-09T01:27:37;100710.34;;;14.43;91.95
73341;BME280;61578;52.002;5.468;2022-09-09T01:28:12;100698.16;;;14.38;92.17
73341;BME280;61578;52.002;5.468;2022-09-09T01:28:56;100703.28;;;14.42;92.19
73341;BME280;61578;52.002;5.468;2022-09-09T01:29:28;100688.09;;;14.31;92.61
73341;BME280;61578;52.002;5.468;2022-09-09T01:29:59;100705.00;;;14.43;92.54
73341;BME280;61578;52.002;5.468;2022-09-09T01:30:33;100697.59;;;14.35;92.21
73341;BME280;61578;52.002;5.468;2022-09-09T01:31:06;100707.13;;;14.37;91.94
73341;BME280;61578;52.002;5.468;2022-09-09T01:31:59;100698.91;;;14.29;92.19
73341;BME280;61578;52.002;5.468;2022-09-09T01:32:43;100707.41;;;14.34;92.30
73341;BME280;61578;52.002;5.468;2022-09-09T01:33:24;100691.41;;;14.23;91.86
73341;BME280;61578;52.002;5.468;2022-09-09T01:33:54;100708.38;;;14.33;92.14
73341;BME280;61578;52.002;5.468;2022-09-09T01:34:29;100680.75;;;14.12;92.30
73341;BME280;61578;52.002;5.468;2022-09-09T01:35:04;100705.09;;;14.30;92.75
73341;BME280;61578;52.002;5.468;2022-09-09T01:35:48;100713.84;;;14.32;92.04
73341;BME280;61578;52.002;5.468;2022-09-09T01:36:41;100699.28;;;14.25;91.73
73341;BME280;61578;52.002;5.468;2022-09-09T01:37:16;100700.84;;;14.27;92.00
73341;BME280;61578;52.002;5.468;2022-09-09T01:37:47;100699.88;;;14.28;92.22
73341;BME280;61578;52.002;5.468;2022-09-09T01:38:18;100704.63;;;14.25;91.95
73341;BME280;61578;52.002;5.468;2022-09-09T01:38:49;100698.94;;;14.18;92.32
73341;BME280;61578;52.002;5.468;2022-09-09T01:39:20;100690.19;;;14.16;92.77
73341;BME280;61578;52.002;5.468;2022-09-09T01:39:51;100705.75;;;14.22;92.07
73341;BME280;61578;52.002;5.468;2022-09-09T01:40:23;100702.34;;;14.20;92.09
73341;BME280;61578;52.002;5.468;2022-09-09T01:40:54;100694.69;;;14.16;91.80
73341;BME280;61578;52.002;5.468;2022-09-09T01:41:25;100697.97;;;14.19;92.68
73341;BME280;61578;52.002;5.468;2022-09-09T01:41:56;100674.94;;;14.07;92.53
73341;BME280;61578;52.002;5.468;2022-09-09T01:42:27;100697.22;;;14.17;92.13
73341;BME280;61578;52.002;5.468;2022-09-09T01:42:58;100704.41;;;14.17;92.65
73341;BME280;61578;52.002;5.468;2022-09-09T01:43:29;100691.16;;;14.15;92.78
73341;BME280;61578;52.002;5.468;2022-09-09T01:44:01;100695.81;;;14.13;92.83
73341;BME280;61578;52.002;5.468;2022-09-09T01:44:34;100701.84;;;14.15;92.39
73341;BME280;61578;52.002;5.468;2022-09-09T01:45:07;100678.00;;;14.03;92.82
73341;BME280;61578;52.002;5.468;2022-09-09T01:45:42;100703.31;;;14.19;93.08
73341;BME280;61578;52.002;5.468;2022-09-09T01:46:14;100700.88;;;14.16;92.97
73341;BME280;61578;52.002;5.468;2022-09-09T01:46:46;100701.59;;;14.18;92.41
73341;BME280;61578;52.002;5.468;2022-09-09T01:47:17;100675.91;;;14.06;92.71
73341;BME280;61578;52.002;5.468;2022-09-09T01:47:49;100699.78;;;14.19;92.71
73341;BME280;61578;52.002;5.468;2022-09-09T01:48:24;100707.91;;;14.17;92.08
73341;BME280;61578;52.002;5.468;2022-09-09T01:48:57;100682.19;;;14.05;92.81
73341;BME280;61578;52.002;5.468;2022-09-09T01:49:31;100681.72;;;14.11;93.26
73341;BME280;61578;52.002;5.468;2022-09-09T01:50:03;100693.84;;;14.15;92.25
73341;BME280;61578;52.002;5.468;2022-09-09T01:50:34;100696.25;;;14.18;92.73
73341;BME280;61578;52.002;5.468;2022-09-09T01:51:05;100702.47;;;14.19;92.37
73341;BME280;61578;52.002;5.468;2022-09-09T01:51:39;100703.44;;;14.18;92.71
73341;BME280;61578;52.002;5.468;2022-09-09T01:52:12;100682.19;;;14.05;92.86
73341;BME280;61578;52.002;5.468;2022-09-09T01:52:46;100691.16;;;14.15;92.74
73341;BME280;61578;52.002;5.468;2022-09-09T01:53:22;100704.16;;;14.20;92.58
73341;BME280;61578;52.002;5.468;2022-09-09T01:53:53;100714.00;;;14.19;92.98
73341;BME280;61578;52.002;5.468;2022-09-09T01:54:28;100700.63;;;14.19;92.23
73341;BME280;61578;52.002;5.468;2022-09-09T01:55:02;100657.63;;;13.90;92.46
73341;BME280;61578;52.002;5.468;2022-09-09T01:55:44;100699.06;;;14.17;92.25
73341;BME280;61578;52.002;5.468;2022-09-09T01:57:15;100690.22;;;14.05;92.50
73341;BME280;61578;52.002;5.468;2022-09-09T01:59:06;100704.78;;;14.12;92.19
73341;BME280;61578;52.002;5.468;2022-09-09T01:59:50;100694.09;;;14.12;92.61
73341;BME280;61578;52.002;5.468;2022-09-09T02:00:48;100683.78;;;14.08;92.74
73341;BME280;61578;52.002;5.468;2022-09-09T02:03:05;100695.94;;;14.12;92.39
73341;BME280;61578;52.002;5.468;2022-09-09T02:03:47;100697.75;;;14.11;92.36
73341;BME280;61578;52.002;5.468;2022-09-09T02:04:37;100692.28;;;14.13;92.82
73341;BME280;61578;52.002;5.468;2022-09-09T02:05:38;100691.44;;;14.12;92.04
73341;BME280;61578;52.002;5.468;2022-09-09T02:06:34;100667.06;;;13.94;92.04
73341;BME280;61578;52.002;5.468;2022-09-09T02:07:51;100681.25;;;14.06;92.74
73341;BME280;61578;52.002;5.468;2022-09-09T02:08:42;100673.50;;;14.03;91.94
73341;BME280;61578;52.002;5.468;2022-09-09T02:09:24;100685.50;;;14.09;92.73
73341;BME280;61578;52.002;5.468;2022-09-09T02:10:14;100670.09;;;14.01;92.78
73341;BME280;61578;52.002;5.468;2022-09-09T02:11:00;100684.75;;;14.07;92.42
73341;BME280;61578;52.002;5.468;2022-09-09T02:11:35;100664.88;;;13.99;92.53
73341;BME280;61578;52.002;5.468;2022-09-09T02:12:14;100686.56;;;14.06;92.29
73341;BME280;61578;52.002;5.468;2022-09-09T02:13:02;100684.03;;;14.05;92.28
73341;BME280;61578;52.002;5.468;2022-09-09T02:13:39;100673.84;;;13.98;92.72
73341;BME280;61578;52.002;5.468;2022-09-09T02:14:18;100671.91;;;14.00;92.54
73341;BME280;61578;52.002;5.468;2022-09-09T02:15:03;100659.44;;;13.90;92.78
73341;BME280;61578;52.002;5.468;2022-09-09T02:15:55;100648.28;;;13.85;92.97
73341;BME280;61578;52.002;5.468;2022-09-09T02:16:40;100670.34;;;13.98;92.92
73341;BME280;61578;52.002;5.468;2022-09-09T02:17:24;100665.00;;;13.98;93.51
73341;BME280;61578;52.002;5.468;2022-09-09T02:18:04;100679.19;;;14.10;92.88
73341;BME280;61578;52.002;5.468;2022-09-09T02:19:02;100678.69;;;14.05;92.52
73341;BME280;61578;52.002;5.468;2022-09-09T02:19:51;100670.09;;;14.01;92.35
73341;BME280;61578;52.002;5.468;2022-09-09T02:20:31;100671.81;;;14.02;92.51
73341;BME280;61578;52.002;5.468;2022-09-09T02:21:06;100682.09;;;14.07;92.59
73341;BME280;61578;52.002;5.468;2022-09-09T02:21:41;100662.31;;;13.98;92.62
73341;BME280;61578;52.002;5.468;2022-09-09T02:22:17;100646.44;;;13.85;92.65
73341;BME280;61578;52.002;5.468;2022-09-09T02:22:53;100679.69;;;14.04;92.54
73341;BME280;61578;52.002;5.468;2022-09-09T02:23:24;100680.91;;;13.99;92.33
73341;BME280;61578;52.002;5.468;2022-09-09T02:23:59;100682.59;;;14.00;92.12
73341;BME280;61578;52.002;5.468;2022-09-09T02:24:37;100674.94;;;13.96;92.12
73341;BME280;61578;52.002;5.468;2022-09-09T02:25:14;100677.25;;;14.00;92.63
73341;BME280;61578;52.002;5.468;2022-09-09T02:25:52;100685.03;;;14.04;92.60
73341;BME280;61578;52.002;5.468;2022-09-09T02:26:26;100687.53;;;14.05;92.77
73341;BME280;61578;52.002;5.468;2022-09-09T02:27:03;100678.34;;;13.98;92.49
73341;BME280;61578;52.002;5.468;2022-09-09T02:27:38;100682.47;;;14.02;92.52
73341;BME280;61578;52.002;5.468;2022-09-09T02:28:14;100656.28;;;13.85;92.27
73341;BME280;61578;52.002;5.468;2022-09-09T02:28:50;100687.94;;;14.00;92.44
73341;BME280;61578;52.002;5.468;2022-09-09T02:29:28;100680.03;;;13.99;92.15
73341;BME280;61578;52.002;5.468;2022-09-09T02:30:04;100685.50;;;13.97;91.84
73341;BME280;61578;52.002;5.468;2022-09-09T02:30:39;100676.75;;;13.95;92.42
73341;BME280;61578;52.002;5.468;2022-09-09T02:31:14;100687.09;;;14.00;92.50
73341;BME280;61578;52.002;5.468;2022-09-09T02:31:50;100684.41;;;14.00;92.55
73341;BME280;61578;52.002;5.468;2022-09-09T02:32:25;100661.03;;;13.81;92.50
73341;BME280;61578;52.002;5.468;2022-09-09T02:32:59;100686.75;;;13.93;91.71
73341;BME280;61578;52.002;5.468;2022-09-09T02:33:41;100683.81;;;13.96;91.91
73341;BME280;61578;52.002;5.468;2022-09-09T02:34:20;100680.78;;;13.90;92.17
73341;BME280;61578;52.002;5.468;2022-09-09T02:35:03;100680.56;;;13.93;92.49
73341;BME280;61578;52.002;5.468;2022-09-09T02:35:40;100678.97;;;13.90;92.47
73341;BME280;61578;52.002;5.468;2022-09-09T02:36:15;100674.59;;;13.89;92.70
73341;BME280;61578;52.002;5.468;2022-09-09T02:36:49;100664.03;;;13.88;92.40
73341;BME280;61578;52.002;5.468;2022-09-09T02:37:31;100676.06;;;13.93;92.52
73341;BME280;61578;52.002;5.468;2022-09-09T02:38:12;100675.78;;;13.96;92.99
73341;BME280;61578;52.002;5.468;2022-09-09T02:38:47;100666.47;;;13.91;92.27
73341;BME280;61578;52.002;5.468;2022-09-09T02:39:20;100670.72;;;13.93;93.13
73341;BME280;61578;52.002;5.468;2022-09-09T02:39:51;100674.81;;;13.97;92.85
73341;BME280;61578;52.002;5.468;2022-09-09T02:40:22;100673.13;;;13.96;92.23
73341;BME280;61578;52.002;5.468;2022-09-09T02:40:53;100677.63;;;13.96;92.49
73341;BME280;61578;52.002;5.468;2022-09-09T02:41:29;100667.66;;;13.98;92.07
73341;BME280;61578;52.002;5.468;2022-09-09T02:42:04;100672.88;;;13.99;91.92
73341;BME280;61578;52.002;5.468;2022-09-09T02:42:39;100665.22;;;13.95;92.21
73341;BME280;61578;52.002;5.468;2022-09-09T02:43:14;100646.72;;;13.82;92.62
73341;BME280;61578;52.002;5.468;2022-09-09T02:43:48;100679.19;;;13.98;92.33
73341;BME280;61578;52.002;5.468;2022-09-09T02:44:19;100676.53;;;13.98;92.56
73341;BME280;61578;52.002;5.468;2022-09-09T02:44:50;100680.16;;;13.97;92.30
73341;BME280;61578;52.002;5.468;2022-09-09T02:45:26;100676.66;;;13.97;92.54
73341;BME280;61578;52.002;5.468;2022-09-09T02:50:37;100679.09;;;13.89;91.67
73341;BME280;61578;52.002;5.468;2022-09-09T02:51:28;100684.66;;;13.86;92.50
73341;BME280;61578;52.002;5.468;2022-09-09T02:52:13;100646.22;;;13.66;92.71
73341;BME280;61578;52.002;5.468;2022-09-09T02:53:16;100679.31;;;13.86;92.74
73341;BME280;61578;52.002;5.468;2022-09-09T02:54:29;100681.03;;;13.87;92.99
73341;BME280;61578;52.002;5.468;2022-09-09T02:55:11;100675.09;;;13.83;92.86
73341;BME280;61578;52.002;5.468;2022-09-09T02:56:04;100674.84;;;13.86;92.34
73341;BME280;61578;52.002;5.468;2022-09-09T02:56:45;100671.31;;;13.86;92.34
73341;BME280;61578;52.002;5.468;2022-09-09T02:57:28;100674.50;;;13.80;92.59
73341;BME280;61578;52.002;5.468;2022-09-09T02:58:05;100669.16;;;13.80;92.59
73341;BME280;61578;52.002;5.468;2022-09-09T02:58:41;100680.06;;;13.88;92.98
73341;BME280;61578;52.002;5.468;2022-09-09T02:59:12;100676.41;;;13.89;92.97
73341;BME280;61578;52.002;5.468;2022-09-09T02:59:44;100658.72;;;13.77;92.45
73341;BME280;61578;52.002;5.468;2022-09-09T03:00:22;100667.22;;;13.82;92.62
73341;BME280;61578;52.002;5.468;2022-09-09T03:00:55;100680.06;;;13.88;92.91
73341;BME280;61578;52.002;5.468;2022-09-09T03:01:28;100681.03;;;13.87;92.62
73341;BME280;61578;52.002;5.468;2022-09-09T03:01:58;100681.03;;;13.87;92.42
73341;BME280;61578;52.002;5.468;2022-09-09T03:02:29;100677.63;;;13.85;92.08
73341;BME280;61578;52.002;5.468;2022-09-09T03:03:00;100661.66;;;13.74;92.55
73341;BME280;61578;52.002;5.468;2022-09-09T03:03:31;100675.97;;;13.84;92.02
73341;BME280;61578;52.002;5.468;2022-09-09T03:04:03;100672.06;;;13.77;92.75
73341;BME280;61578;52.002;5.468;2022-09-09T03:04:35;100681.28;;;13.84;92.48
73341;BME280;61578;52.002;5.468;2022-09-09T03:05:06;100677.63;;;13.85;92.82
73341;BME280;61578;52.002;5.468;2022-09-09T03:05:37;100677.16;;;13.80;91.99
73341;BME280;61578;52.002;5.468;2022-09-09T03:06:08;100682.13;;;13.84;92.59
73341;BME280;61578;52.002;5.468;2022-09-09T03:06:40;100691.97;;;13.84;92.45
73341;BME280;61578;52.002;5.468;2022-09-09T03:07:11;100686.88;;;13.81;92.18
73341;BME280;61578;52.002;5.468;2022-09-09T03:07:42;100670.97;;;13.68;92.13
73341;BME280;61578;52.002;5.468;2022-09-09T03:08:13;100679.84;;;13.69;92.36
73341;BME280;61578;52.002;5.468;2022-09-09T03:08:43;100654.50;;;13.63;92.84
73341;BME280;61578;52.002;5.468;2022-09-09T03:09:14;100690.38;;;13.81;93.15
73341;BME280;61578;52.002;5.468;2022-09-09T03:09:45;100688.56;;;13.82;92.64
73341;BME280;61578;52.002;5.468;2022-09-09T03:10:17;100653.50;;;13.64;92.36
73341;BME280;61578;52.002;5.468;2022-09-09T03:10:48;100680.06;;;13.77;92.27
73341;BME280;61578;52.002;5.468;2022-09-09T03:11:19;100662.84;;;13.70;92.57
73341;BME280;61578;52.002;5.468;2022-09-09T03:11:50;100670.88;;;13.70;92.72
73341;BME280;61578;52.002;5.468;2022-09-09T03:12:20;100685.16;;;13.80;92.66
73341;BME280;61578;52.002;5.468;2022-09-09T03:12:51;100663.09;;;13.67;92.77
73341;BME280;61578;52.002;5.468;2022-09-09T03:13:22;100683.47;;;13.79;92.34
73341;BME280;61578;52.002;5.468;2022-09-09T03:13:52;100668.66;;;13.75;93.11
73341;BME280;61578;52.002;5.468;2022-09-09T03:14:23;100675.22;;;13.82;92.83
73341;BME280;61578;52.002;5.468;2022-09-09T03:14:57;100667.69;;;13.76;93.18
73341;BME280;61578;52.002;5.468;2022-09-09T03:15:27;100670.75;;;13.82;93.32
73341;BME280;61578;52.002;5.468;2022-09-09T03:16:00;100665.03;;;13.76;93.11
73341;BME280;61578;52.002;5.468;2022-09-09T03:16:31;100677.50;;;13.86;93.03
73341;BME280;61578;52.002;5.468;2022-09-09T03:17:05;100658.72;;;13.77;92.44
73341;BME280;61578;52.002;5.468;2022-09-09T03:17:36;100676.06;;;13.82;92.48
73341;BME280;61578;52.002;5.468;2022-09-09T03:18:07;100667.09;;;13.83;92.64
73341;BME280;61578;52.002;5.468;2022-09-09T03:18:38;100662.25;;;13.77;92.38
73341;BME280;61578;52.002;5.468;2022-09-09T03:19:09;100638.63;;;13.61;92.68
73341;BME280;61578;52.002;5.468;2022-09-09T03:19:39;100681.28;;;13.84;92.89
73341;BME280;61578;52.002;5.468;2022-09-09T03:20:10;100673.28;;;13.84;93.01
73341;BME280;61578;52.002;5.468;2022-09-09T03:20:41;100673.75;;;13.78;92.68
73341;BME280;61578;52.002;5.468;2022-09-09T03:21:12;100665.75;;;13.78;93.39
73341;BME280;61578;52.002;5.468;2022-09-09T03:21:43;100682.00;;;13.86;93.07
73341;BME280;61578;52.002;5.468;2022-09-09T03:22:13;100666.50;;;13.80;92.90
73341;BME280;61578;52.002;5.468;2022-09-09T03:22:44;100682.72;;;13.88;93.23
73341;BME280;61578;52.002;5.468;2022-09-09T03:23:15;100671.31;;;13.86;93.07
73341;BME280;61578;52.002;5.468;2022-09-09T03:23:46;100671.44;;;13.84;92.49
73341;BME280;61578;52.002;5.468;2022-09-09T03:24:16;100670.63;;;13.84;92.73
73341;BME280;61578;52.002;5.468;2022-09-09T03:24:47;100677.50;;;13.86;92.98
73341;BME280;61578;52.002;5.468;2022-09-09T03:25:18;100679.31;;;13.86;92.42
73341;BME280;61578;52.002;5.468;2022-09-09T03:25:50;100678.47;;;13.85;93.11
73341;BME280;61578;52.002;5.468;2022-09-09T03:26:22;100668.91;;;13.83;93.21
73341;BME280;61578;52.002;5.468;2022-09-09T03:26:53;100674.00;;;13.86;92.69
73341;BME280;61578;52.002;5.468;2022-09-09T03:27:26;100660.53;;;13.76;93.04
73341;BME280;61578;52.002;5.468;2022-09-09T03:27:56;100664.78;;;13.79;92.54
73341;BME280;61578;52.002;5.468;2022-09-09T03:28:27;100675.97;;;13.84;92.84
73341;BME280;61578;52.002;5.468;2022-09-09T03:29:01;100680.06;;;13.88;92.70
73341;BME280;61578;52.002;5.468;2022-09-09T03:29:32;100672.06;;;13.88;92.67
73341;BME280;61578;52.002;5.468;2022-09-09T03:30:03;100667.81;;;13.85;92.96
73341;BME280;61578;52.002;5.468;2022-09-09T03:30:34;100663.44;;;13.84;92.04
73341;BME280;61578;52.002;5.468;2022-09-09T03:31:05;100634.59;;;13.67;92.52
73341;BME280;61578;52.002;5.468;2022-09-09T03:31:36;100670.34;;;13.87;92.90
73341;BME280;61578;52.002;5.468;2022-09-09T03:32:07;100653.66;;;13.74;92.05
73341;BME280;61578;52.002;5.468;2022-09-09T03:32:40;100679.31;;;13.86;92.50
73341;BME280;61578;52.002;5.468;2022-09-09T03:33:11;100663.47;;;13.73;92.23
73341;BME280;61578;52.002;5.468;2022-09-09T03:33:42;100678.47;;;13.85;92.26
73341;BME280;61578;52.002;5.468;2022-09-09T03:34:13;100639.59;;;13.60;92.72
73341;BME280;61578;52.002;5.468;2022-09-09T03:34:44;100676.66;;;13.86;92.60
73341;BME280;61578;52.002;5.468;2022-09-09T03:35:16;100659.44;;;13.79;92.80
73341;BME280;61578;52.002;5.468;2022-09-09T03:35:47;100655.81;;;13.80;92.62
73341;BME280;61578;52.002;5.468;2022-09-09T03:36:19;100673.03;;;13.87;93.00
73341;BME280;61578;52.002;5.468;2022-09-09T03:36:49;100679.09;;;13.89;93.21
73341;BME280;61578;52.002;5.468;2022-09-09T03:37:20;100679.09;;;13.89;92.79
73341;BME280;61578;52.002;5.468;2022-09-09T03:37:51;100671.81;;;13.91;92.74
73341;BME280;61578;52.002;5.468;2022-09-09T03:38:25;100670.84;;;13.81;92.82
73341;BME280;61578;52.002;5.468;2022-09-09T03:38:56;100663.09;;;13.78;92.46
73341;BME280;61578;52.002;5.468;2022-09-09T03:39:26;100686.13;;;13.90;92.50
73341;BME280;61578;52.002;5.468;2022-09-09T03:39:57;100675.44;;;13.90;92.99
73341;BME280;61578;52.002;5.468;2022-09-09T03:40:27;100686.13;;;13.90;92.45
73341;BME280;61578;52.002;5.468;2022-09-09T03:40:58;100661.28;;;13.78;92.53
73341;BME280;61578;52.002;5.468;2022-09-09T03:41:30;100674.72;;;13.88;92.55
73341;BME280;61578;52.002;5.468;2022-09-09T03:42:01;100678.00;;;13.91;92.74
73341;BME280;61578;52.002;5.468;2022-09-09T03:42:34;100683.34;;;13.91;92.53
73341;BME280;61578;52.002;5.468;2022-09-09T03:43:07;100678.13;;;13.90;92.48
73341;BME280;61578;52.002;5.468;2022-09-09T03:43:37;100686.00;;;13.91;92.67
73341;BME280;61578;52.002;5.468;2022-09-09T03:44:08;100668.91;;;13.83;93.08
73341;BME280;61578;52.002;5.468;2022-09-09T03:44:39;100684.91;;;13.94;93.30
73341;BME280;61578;52.002;5.468;2022-09-09T03:45:10;100683.06;;;13.94;93.33
73341;BME280;61578;52.002;5.468;2022-09-09T03:45:45;100675.91;;;13.95;92.98
73341;BME280;61578;52.002;5.468;2022-09-09T03:46:25;100681.25;;;13.95;92.75
73341;BME280;61578;52.002;5.468;2022-09-09T03:46:56;100678.00;;;13.91;92.61
73341;BME280;61578;52.002;5.468;2022-09-09T03:47:30;100670.34;;;13.87;92.55
73341;BME280;61578;52.002;5.468;2022-09-09T03:48:01;100673.50;;;13.92;92.30
73341;BME280;61578;52.002;5.468;2022-09-09T03:48:32;100676.31;;;13.90;92.63
73341;BME280;61578;52.002;5.468;2022-09-09T03:49:02;100665.41;;;13.82;92.95
73341;BME280;61578;52.002;5.468;2022-09-09T03:49:33;100678.84;;;13.92;92.97
73341;BME280;61578;52.002;5.468;2022-09-09T03:50:05;100674.84;;;13.86;92.31
73341;BME280;61578;52.002;5.468;2022-09-09T03:50:38;100673.03;;;13.87;92.37
73341;BME280;61578;52.002;5.468;2022-09-09T03:51:09;100665.53;;;13.81;92.31
73341;BME280;61578;52.002;5.468;2022-09-09T03:51:40;100680.06;;;13.88;92.31
73341;BME280;61578;52.002;5.468;2022-09-09T03:52:12;100662.34;;;13.76;92.32
73341;BME280;61578;52.002;5.468;2022-09-09T03:52:42;100674.72;;;13.88;92.47